sensor_id;sensor_type;location;lat;lon;timestamp;pressure;altitude;pressure_sealevel;temperature;humidity
40285;BME280;25997;50.214;19.354;2023-03-01T00:00:52;98995.00;;;-3.82;50.81
40285;BME280;25997;50.214;19.354;2023-03-01T00:03:56;99008.91;;;-3.88;50.72
40285;BME280;25997;50.214;19.354;2023-03-01T00:06:58;98998.81;;;-3.96;50.98
40285;BME280;25997;50.214;19.354;2023-03-01T00:10:01;98995.06;;;-4.08;50.58
40285;BME280;25997;50.214;19.354;2023-03-01T00:13:04;98995.09;;;-4.16;51.28
40285;BME280;25997;50.214;19.354;2023-03-01T00:16:10;98992.69;;;-4.23;51.58
40285;BME280;25997;50.214;19.354;2023-03-01T00:19:15;98994.47;;;-4.22;51.89
40285;BME280;25997;50.214;19.354;2023-03-01T00:22:17;98993.28;;;-4.17;52.14
40285;BME280;25997;50.214;19.354;2023-03-01T00:25:20;98992.81;;;-4.05;51.70
40285;BME280;25997;50.214;19.354;2023-03-01T00:28:23;98984.66;;;-3.92;51.72
40285;BME280;25997;50.214;19.354;2023-03-01T00:31:28;98994.84;;;-3.75;51.41
40285;BME280;25997;50.214;19.354;2023-03-01T00:34:31;98989.25;;;-3.62;51.35
40285;BME280;25997;50.214;19.354;2023-03-01T00:37:34;98984.97;;;-3.53;51.07
40285;BME280;25997;50.214;19.354;2023-03-01T00:40:37;98987.81;;;-3.42;51.18
40285;BME280;25997;50.214;19.354;2023-03-01T00:43:39;98985.50;;;-3.30;50.93
40285;BME280;25997;50.214;19.354;2023-03-01T00:46:44;98978.53;;;-3.31;50.61
40285;BME280;25997;50.214;19.354;2023-03-01T00:49:46;98976.34;;;-3.45;50.29
40285;BME280;25997;50.214;19.354;2023-03-01T00:52:52;98975.97;;;-3.58;50.30
40285;BME280;25997;50.214;19.354;2023-03-01T00:55:57;98974.06;;;-3.78;50.57
40285;BME280;25997;50.214;19.354;2023-03-01T00:59:00;98975.72;;;-3.96;50.86
40285;BME280;25997;50.214;19.354;2023-03-01T01:02:04;98964.44;;;-4.06;51.01
40285;BME280;25997;50.214;19.354;2023-03-01T01:05:07;98973.66;;;-4.17;51.18
40285;BME280;25997;50.214;19.354;2023-03-01T01:08:09;98966.91;;;-4.25;51.19
40285;BME280;25997;50.214;19.354;2023-03-01T01:11:12;98971.28;;;-4.32;51.24
40285;BME280;25997;50.214;19.354;2023-03-01T01:14:16;98961.75;;;-4.33;51.54
40285;BME280;25997;50.214;19.354;2023-03-01T01:17:20;98961.03;;;-4.32;51.40
40285;BME280;25997;50.214;19.354;2023-03-01T01:20:22;98965.41;;;-4.31;51.60
40285;BME280;25997;50.214;19.354;2023-03-01T01:23:25;98957.09;;;-4.37;51.73
40285;BME280;25997;50.214;19.354;2023-03-01T01:26:29;98954.41;;;-4.39;51.86
40285;BME280;25997;50.214;19.354;2023-03-01T01:29:32;98943.84;;;-4.42;51.44
40285;BME280;25997;50.214;19.354;2023-03-01T01:32:37;98958.03;;;-4.45;51.49
40285;BME280;25997;50.214;19.354;2023-03-01T01:35:39;98947.78;;;-4.54;51.65
40285;BME280;25997;50.214;19.354;2023-03-01T01:38:42;98944.59;;;-4.60;52.07
40285;BME280;25997;50.214;19.354;2023-03-01T01:41:44;98936.03;;;-4.60;51.94
40285;BME280;25997;50.214;19.354;2023-03-01T01:44:48;98934.53;;;-4.58;51.96
40285;BME280;25997;50.214;19.354;2023-03-01T01:47:53;98936.50;;;-4.56;52.06
40285;BME280;25997;50.214;19.354;2023-03-01T01:50:59;98925.63;;;-4.53;51.90
40285;BME280;25997;50.214;19.354;2023-03-01T01:54:02;98925.47;;;-4.46;51.92
40285;BME280;25997;50.214;19.354;2023-03-01T01:57:09;98931.19;;;-4.40;52.04
40285;BME280;25997;50.214;19.354;2023-03-01T02:00:16;98925.03;;;-4.42;51.93
40285;BME280;25997;50.214;19.354;2023-03-01T02:03:23;98934.50;;;-4.41;52.10
40285;BME280;25997;50.214;19.354;2023-03-01T02:06:32;98926.81;;;-4.41;52.17
40285;BME280;25997;50.214;19.354;2023-03-01T02:09:35;98924.25;;;-4.41;52.21
40285;BME280;25997;50.214;19.354;2023-03-01T02:12:39;98925.31;;;-4.39;52.16
40285;BME280;25997;50.214;19.354;2023-03-01T02:15:41;98922.13;;;-4.37;52.03
40285;BME280;25997;50.214;19.354;2023-03-01T02:18:47;98925.63;;;-4.36;52.10
40285;BME280;25997;50.214;19.354;2023-03-01T02:21:55;98920.34;;;-4.38;52.12
40285;BME280;25997;50.214;19.354;2023-03-01T02:25:12;98926.22;;;-4.47;52.31
40285;BME280;25997;50.214;19.354;2023-03-01T02:28:25;98937.81;;;-4.59;52.46
40285;BME280;25997;50.214;19.354;2023-03-01T02:31:27;98945.97;;;-4.63;52.22
40285;BME280;25997;50.214;19.354;2023-03-01T02:34:46;98941.13;;;-4.78;51.67
40285;BME280;25997;50.214;19.354;2023-03-01T02:37:49;98947.31;;;-4.93;52.13
40285;BME280;25997;50.214;19.354;2023-03-01T02:40:52;98939.47;;;-5.11;52.87
40285;BME280;25997;50.214;19.354;2023-03-01T02:43:57;98931.59;;;-5.13;52.78
40285;BME280;25997;50.214;19.354;2023-03-01T02:47:03;98925.56;;;-5.13;52.77
40285;BME280;25997;50.214;19.354;2023-03-01T02:50:18;98942.16;;;-5.10;52.92
40285;BME280;25997;50.214;19.354;2023-03-01T02:53:33;98934.47;;;-5.10;53.01
40285;BME280;25997;50.214;19.354;2023-03-01T02:56:37;98934.34;;;-5.03;53.02
40285;BME280;25997;50.214;19.354;2023-03-01T02:59:42;98936.00;;;-4.95;52.71
40285;BME280;25997;50.214;19.354;2023-03-01T03:02:45;98942.50;;;-4.90;52.74
40285;BME280;25997;50.214;19.354;2023-03-01T03:05:52;98943.56;;;-4.88;52.40
40285;BME280;25997;50.214;19.354;2023-03-01T03:08:55;98932.13;;;-4.91;52.25
40285;BME280;25997;50.214;19.354;2023-03-01T03:11:57;98931.94;;;-5.01;52.31
40285;BME280;25997;50.214;19.354;2023-03-01T03:15:02;98928.19;;;-5.05;52.22
40285;BME280;25997;50.214;19.354;2023-03-01T03:18:12;98912.81;;;-5.05;52.34
40285;BME280;25997;50.214;19.354;2023-03-01T03:21:15;98919.44;;;-5.07;52.25
40285;BME280;25997;50.214;19.354;2023-03-01T03:24:18;98917.03;;;-5.14;52.52
40285;BME280;25997;50.214;19.354;2023-03-01T03:27:22;98911.13;;;-5.13;52.72
40285;BME280;25997;50.214;19.354;2023-03-01T03:30:27;98901.81;;;-5.12;52.72
40285;BME280;25997;50.214;19.354;2023-03-01T03:33:30;98904.69;;;-5.09;52.94
40285;BME280;25997;50.214;19.354;2023-03-01T03:36:33;98897.00;;;-5.01;53.01
40285;BME280;25997;50.214;19.354;2023-03-01T03:39:35;98902.13;;;-4.92;53.06
40285;BME280;25997;50.214;19.354;2023-03-01T03:42:38;98905.59;;;-4.92;52.62
40285;BME280;25997;50.214;19.354;2023-03-01T03:45:43;98905.28;;;-5.03;52.39
40285;BME280;25997;50.214;19.354;2023-03-01T03:48:46;98909.94;;;-5.16;52.44
40285;BME280;25997;50.214;19.354;2023-03-01T03:51:50;98916.81;;;-5.32;52.15
40285;BME280;25997;50.214;19.354;2023-03-01T03:54:52;98921.00;;;-5.42;52.28
40285;BME280;25997;50.214;19.354;2023-03-01T03:57:57;98914.50;;;-5.47;52.51
40285;BME280;25997;50.214;19.354;2023-03-01T04:01:04;98917.06;;;-5.47;52.51
40285;BME280;25997;50.214;19.354;2023-03-01T04:04:09;98910.16;;;-5.56;52.75
40285;BME280;25997;50.214;19.354;2023-03-01T04:07:12;98915.84;;;-5.59;52.74
40285;BME280;25997;50.214;19.354;2023-03-01T04:10:16;98913.44;;;-5.57;53.10
40285;BME280;25997;50.214;19.354;2023-03-01T04:13:21;98917.06;;;-5.55;53.17
40285;BME280;25997;50.214;19.354;2023-03-01T04:16:25;98917.63;;;-5.58;52.88
40285;BME280;25997;50.214;19.354;2023-03-01T04:19:27;98915.84;;;-5.59;53.11
40285;BME280;25997;50.214;19.354;2023-03-01T04:22:30;98918.56;;;-5.57;53.32
40285;BME280;25997;50.214;19.354;2023-03-01T04:25:33;98915.09;;;-5.58;53.32
40285;BME280;25997;50.214;19.354;2023-03-01T04:28:37;98915.25;;;-5.56;52.91
40285;BME280;25997;50.214;19.354;2023-03-01T04:31:42;98909.97;;;-5.58;53.23
40285;BME280;25997;50.214;19.354;2023-03-01T04:34:44;98906.69;;;-5.57;53.60
40285;BME280;25997;50.214;19.354;2023-03-01T04:37:47;98906.25;;;-5.44;53.75
40285;BME280;25997;50.214;19.354;2023-03-01T04:40:49;98903.44;;;-5.30;53.76
40285;BME280;25997;50.214;19.354;2023-03-01T04:43:52;98907.06;;;-5.19;53.45
40285;BME280;25997;50.214;19.354;2023-03-01T04:46:56;98897.75;;;-5.19;53.26
40285;BME280;25997;50.214;19.354;2023-03-01T04:49:58;98890.53;;;-5.14;53.63
40285;BME280;25997;50.214;19.354;2023-03-01T04:53:01;98891.28;;;-4.98;53.79
40285;BME280;25997;50.214;19.354;2023-03-01T04:56:04;98882.69;;;-4.73;53.35
40285;BME280;25997;50.214;19.354;2023-03-01T04:59:07;98879.34;;;-4.46;53.07
40285;BME280;25997;50.214;19.354;2023-03-01T05:02:12;98879.97;;;-4.40;51.86
40285;BME280;25997;50.214;19.354;2023-03-01T05:05:14;98881.19;;;-4.62;51.85
40285;BME280;25997;50.214;19.354;2023-03-01T05:08:17;98891.28;;;-4.81;51.94
40285;BME280;25997;50.214;19.354;2023-03-01T05:11:21;98888.28;;;-5.03;51.94
40285;BME280;25997;50.214;19.354;2023-03-01T05:14:24;98886.13;;;-5.24;51.89
40285;BME280;25997;50.214;19.354;2023-03-01T05:17:27;98883.09;;;-5.37;52.15
40285;BME280;25997;50.214;19.354;2023-03-01T05:20:30;98878.41;;;-5.50;52.07
40285;BME280;25997;50.214;19.354;2023-03-01T05:23:33;98885.78;;;-5.53;52.88
40285;BME280;25997;50.214;19.354;2023-03-01T05:26:36;98876.00;;;-5.48;52.77
40285;BME280;25997;50.214;19.354;2023-03-01T05:29:41;98874.94;;;-5.50;52.64
40285;BME280;25997;50.214;19.354;2023-03-01T05:32:48;98880.38;;;-5.47;53.23
40285;BME280;25997;50.214;19.354;2023-03-01T05:35:54;98884.44;;;-5.49;52.71
40285;BME280;25997;50.214;19.354;2023-03-01T05:38:56;98892.97;;;-5.57;52.46
40285;BME280;25997;50.214;19.354;2023-03-01T05:42:00;98900.63;;;-5.66;52.48
40285;BME280;25997;50.214;19.354;2023-03-01T05:45:03;98897.03;;;-5.68;52.70
40285;BME280;25997;50.214;19.354;2023-03-01T05:48:12;98903.31;;;-5.73;52.52
40285;BME280;25997;50.214;19.354;2023-03-01T05:51:14;98906.31;;;-5.77;52.61
40285;BME280;25997;50.214;19.354;2023-03-01T05:54:18;98907.34;;;-5.83;52.46
40285;BME280;25997;50.214;19.354;2023-03-01T05:57:21;98907.44;;;-5.90;52.85
40285;BME280;25997;50.214;19.354;2023-03-01T06:00:24;98902.94;;;-5.84;54.01
40285;BME280;25997;50.214;19.354;2023-03-01T06:03:28;98904.38;;;-5.62;54.48
40285;BME280;25997;50.214;19.354;2023-03-01T06:06:33;98894.69;;;-5.41;53.91
40285;BME280;25997;50.214;19.354;2023-03-01T06:09:38;98903.31;;;-5.23;53.83
40285;BME280;25997;50.214;19.354;2023-03-01T06:12:41;98906.06;;;-4.96;53.75
40285;BME280;25997;50.214;19.354;2023-03-01T06:15:44;98900.78;;;-4.63;53.49
40285;BME280;25997;50.214;19.354;2023-03-01T06:18:48;98905.13;;;-4.45;52.63
40285;BME280;25997;50.214;19.354;2023-03-01T06:21:51;98914.16;;;-4.40;52.65
40285;BME280;25997;50.214;19.354;2023-03-01T06:24:53;98918.38;;;-4.40;52.26
40285;BME280;25997;50.214;19.354;2023-03-01T06:27:56;98917.16;;;-4.44;52.02
40285;BME280;25997;50.214;19.354;2023-03-01T06:30:58;98910.09;;;-4.46;52.25
40285;BME280;25997;50.214;19.354;2023-03-01T06:34:02;98910.53;;;-4.42;52.21
40285;BME280;25997;50.214;19.354;2023-03-01T06:37:05;98914.31;;;-4.38;52.56
40285;BME280;25997;50.214;19.354;2023-03-01T06:40:09;98905.69;;;-4.30;52.38
40285;BME280;25997;50.214;19.354;2023-03-01T06:43:12;98898.31;;;-4.27;52.47
40285;BME280;25997;50.214;19.354;2023-03-01T06:46:14;98897.25;;;-4.21;52.63
40285;BME280;25997;50.214;19.354;2023-03-01T06:49:18;98903.25;;;-4.12;52.82
40285;BME280;25997;50.214;19.354;2023-03-01T06:52:22;98908.22;;;-4.05;52.42
40285;BME280;25997;50.214;19.354;2023-03-01T06:55:24;98902.44;;;-4.02;52.74
40285;BME280;25997;50.214;19.354;2023-03-01T06:58:27;98903.63;;;-3.90;52.83
40285;BME280;25997;50.214;19.354;2023-03-01T07:01:30;98897.56;;;-3.82;52.81
40285;BME280;25997;50.214;19.354;2023-03-01T07:04:34;98900.69;;;-3.67;52.64
40285;BME280;25997;50.214;19.354;2023-03-01T07:07:36;98901.38;;;-3.51;52.68
40285;BME280;25997;50.214;19.354;2023-03-01T07:10:39;98885.31;;;-3.40;52.36
40285;BME280;25997;50.214;19.354;2023-03-01T07:13:41;98888.50;;;-3.24;52.98
40285;BME280;25997;50.214;19.354;2023-03-01T07:16:44;98881.13;;;-3.02;52.98
40285;BME280;25997;50.214;19.354;2023-03-01T07:19:47;98876.06;;;-2.74;52.52
40285;BME280;25997;50.214;19.354;2023-03-01T07:22:50;98868.00;;;-2.39;52.27
40285;BME280;25997;50.214;19.354;2023-03-01T07:25:53;98876.63;;;-2.10;52.04
40285;BME280;25997;50.214;19.354;2023-03-01T07:28:55;98870.53;;;-1.92;52.38
40285;BME280;25997;50.214;19.354;2023-03-01T07:32:00;98863.88;;;-1.80;52.34
40285;BME280;25997;50.214;19.354;2023-03-01T07:35:05;98865.31;;;-1.74;52.41
40285;BME280;25997;50.214;19.354;2023-03-01T07:38:08;98868.16;;;-1.60;52.27
40285;BME280;25997;50.214;19.354;2023-03-01T07:41:11;98858.53;;;-1.43;52.34
40285;BME280;25997;50.214;19.354;2023-03-01T07:44:13;98864.84;;;-1.19;51.76
40285;BME280;25997;50.214;19.354;2023-03-01T07:47:16;98873.88;;;-1.04;51.62
40285;BME280;25997;50.214;19.354;2023-03-01T07:50:20;98874.38;;;-0.88;50.99
40285;BME280;25997;50.214;19.354;2023-03-01T07:53:23;98879.78;;;-0.65;50.43
40285;BME280;25997;50.214;19.354;2023-03-01T07:56:26;98878.94;;;-0.44;50.11
40285;BME280;25997;50.214;19.354;2023-03-01T07:59:28;98879.03;;;-0.32;50.43
40285;BME280;25997;50.214;19.354;2023-03-01T08:02:31;98879.94;;;-0.32;50.69
40285;BME280;25997;50.214;19.354;2023-03-01T08:05:35;98874.25;;;-0.28;50.53
40285;BME280;25997;50.214;19.354;2023-03-01T08:08:37;98880.28;;;-0.17;50.76
40285;BME280;25997;50.214;19.354;2023-03-01T08:11:40;98875.75;;;-0.09;50.81
40285;BME280;25997;50.214;19.354;2023-03-01T08:14:42;98871.47;;;-0.09;50.80
40285;BME280;25997;50.214;19.354;2023-03-01T08:17:45;98867.94;;;0.01;50.62
40285;BME280;25997;50.214;19.354;2023-03-01T08:20:49;98861.84;;;0.10;50.70
40285;BME280;25997;50.214;19.354;2023-03-01T08:23:51;98856.09;;;0.24;50.57
40285;BME280;25997;50.214;19.354;2023-03-01T08:26:54;98858.19;;;0.40;49.99
40285;BME280;25997;50.214;19.354;2023-03-01T08:29:57;98859.97;;;0.51;50.02
40285;BME280;25997;50.214;19.354;2023-03-01T08:32:59;98852.78;;;0.59;49.33
40285;BME280;25997;50.214;19.354;2023-03-01T08:36:04;98847.72;;;0.82;49.07
40285;BME280;25997;50.214;19.354;2023-03-01T08:39:09;98857.53;;;0.97;48.47
40285;BME280;25997;50.214;19.354;2023-03-01T08:42:12;98849.47;;;1.04;48.03
40285;BME280;25997;50.214;19.354;2023-03-01T08:45:15;98844.28;;;1.16;48.00
40285;BME280;25997;50.214;19.354;2023-03-01T08:48:19;98839.81;;;1.25;47.50
40285;BME280;25997;50.214;19.354;2023-03-01T08:51:24;98843.53;;;1.40;47.54
40285;BME280;25997;50.214;19.354;2023-03-01T08:54:27;98845.38;;;1.64;47.17
40285;BME280;25997;50.214;19.354;2023-03-01T08:57:30;98844.81;;;1.80;46.60
40285;BME280;25997;50.214;19.354;2023-03-01T09:00:32;98842.06;;;1.90;46.56
40285;BME280;25997;50.214;19.354;2023-03-01T09:03:36;98839.13;;;1.97;46.10
40285;BME280;25997;50.214;19.354;2023-03-01T09:06:40;98844.84;;;2.05;45.79
40285;BME280;25997;50.214;19.354;2023-03-01T09:09:43;98836.31;;;2.06;45.55
40285;BME280;25997;50.214;19.354;2023-03-01T09:12:45;98841.56;;;2.07;45.47
40285;BME280;25997;50.214;19.354;2023-03-01T09:15:47;98835.69;;;2.21;45.39
40285;BME280;25997;50.214;19.354;2023-03-01T09:18:52;98833.09;;;2.33;44.75
40285;BME280;25997;50.214;19.354;2023-03-01T09:21:56;98837.31;;;2.44;44.49
40285;BME280;25997;50.214;19.354;2023-03-01T09:24:59;98841.31;;;2.63;44.33
40285;BME280;25997;50.214;19.354;2023-03-01T09:28:02;98837.22;;;2.67;43.73
40285;BME280;25997;50.214;19.354;2023-03-01T09:31:05;98831.28;;;2.56;43.46
40285;BME280;25997;50.214;19.354;2023-03-01T09:34:09;98836.34;;;2.66;43.66
40285;BME280;25997;50.214;19.354;2023-03-01T09:37:12;98828.56;;;2.66;43.42
40285;BME280;25997;50.214;19.354;2023-03-01T09:40:18;98829.63;;;2.82;43.48
40285;BME280;25997;50.214;19.354;2023-03-01T09:43:25;98826.50;;;2.99;43.12
40285;BME280;25997;50.214;19.354;2023-03-01T09:46:37;98826.03;;;3.04;42.99
40285;BME280;25997;50.214;19.354;2023-03-01T09:49:45;98827.22;;;3.09;42.95
40285;BME280;25997;50.214;19.354;2023-03-01T09:53:01;98825.16;;;3.30;42.51
40285;BME280;25997;50.214;19.354;2023-03-01T09:56:11;98821.50;;;3.53;42.36
40285;BME280;25997;50.214;19.354;2023-03-01T09:59:23;98819.13;;;3.69;42.20
40285;BME280;25997;50.214;19.354;2023-03-01T10:02:33;98819.50;;;3.88;42.05
40285;BME280;25997;50.214;19.354;2023-03-01T10:05:57;98818.16;;;4.07;41.23
40285;BME280;25997;50.214;19.354;2023-03-01T10:09:05;98817.53;;;4.11;41.19
40285;BME280;25997;50.214;19.354;2023-03-01T10:12:10;98815.81;;;4.25;41.21
40285;BME280;25997;50.214;19.354;2023-03-01T10:15:16;98818.72;;;4.30;41.00
40285;BME280;25997;50.214;19.354;2023-03-01T10:18:23;98800.50;;;4.30;41.03
40285;BME280;25997;50.214;19.354;2023-03-01T10:21:28;98804.75;;;4.55;41.29
40285;BME280;25997;50.214;19.354;2023-03-01T10:24:35;98808.16;;;4.97;41.36
40285;BME280;25997;50.214;19.354;2023-03-01T10:27:46;98798.31;;;5.35;41.26
40285;BME280;25997;50.214;19.354;2023-03-01T10:30:52;98806.94;;;5.94;41.36
40285;BME280;25997;50.214;19.354;2023-03-01T10:33:55;98801.38;;;6.65;40.72
40285;BME280;25997;50.214;19.354;2023-03-01T10:37:08;98796.00;;;7.28;40.40
40285;BME280;25997;50.214;19.354;2023-03-01T10:40:13;98794.44;;;7.65;39.79
40285;BME280;25997;50.214;19.354;2023-03-01T10:43:15;98795.34;;;7.83;38.41
40285;BME280;25997;50.214;19.354;2023-03-01T10:46:26;98798.38;;;8.28;38.03
40285;BME280;25997;50.214;19.354;2023-03-01T10:49:31;98792.56;;;8.72;37.91
40285;BME280;25997;50.214;19.354;2023-03-01T10:52:35;98785.81;;;8.96;36.81
40285;BME280;25997;50.214;19.354;2023-03-01T10:55:40;98782.53;;;9.40;36.83
40285;BME280;25997;50.214;19.354;2023-03-01T10:58:58;98785.59;;;9.71;34.45
40285;BME280;25997;50.214;19.354;2023-03-01T11:02:12;98777.31;;;9.82;35.33
40285;BME280;25997;50.214;19.354;2023-03-01T11:05:20;98772.75;;;9.99;35.51
40285;BME280;25997;50.214;19.354;2023-03-01T11:08:36;98773.25;;;10.11;33.94
40285;BME280;25997;50.214;19.354;2023-03-01T11:11:41;98761.03;;;10.12;34.31
40285;BME280;25997;50.214;19.354;2023-03-01T11:14:47;98759.13;;;10.30;34.33
40285;BME280;25997;50.214;19.354;2023-03-01T11:17:50;98755.50;;;10.26;34.12
40285;BME280;25997;50.214;19.354;2023-03-01T11:20:55;98763.00;;;10.39;33.79
40285;BME280;25997;50.214;19.354;2023-03-01T11:23:59;98746.31;;;10.15;33.07
40285;BME280;25997;50.214;19.354;2023-03-01T11:27:14;98751.75;;;10.20;32.50
40285;BME280;25997;50.214;19.354;2023-03-01T11:30:20;98745.94;;;10.50;33.01
40285;BME280;25997;50.214;19.354;2023-03-01T11:33:35;98747.94;;;10.81;30.68
40285;BME280;25997;50.214;19.354;2023-03-01T11:36:42;98749.22;;;11.16;32.34
40285;BME280;25997;50.214;19.354;2023-03-01T11:39:53;98748.94;;;11.32;31.29
40285;BME280;25997;50.214;19.354;2023-03-01T11:43:04;98741.72;;;11.78;30.29
40285;BME280;25997;50.214;19.354;2023-03-01T11:46:31;98743.41;;;11.50;28.96
40285;BME280;25997;50.214;19.354;2023-03-01T11:49:58;98738.00;;;11.72;27.49
40285;BME280;25997;50.214;19.354;2023-03-01T11:53:23;98730.84;;;11.68;29.93
40285;BME280;25997;50.214;19.354;2023-03-01T11:56:34;98729.72;;;11.86;30.49
40285;BME280;25997;50.214;19.354;2023-03-01T12:00:02;98729.00;;;11.65;28.43
40285;BME280;25997;50.214;19.354;2023-03-01T12:03:26;98729.06;;;11.67;29.07
40285;BME280;25997;50.214;19.354;2023-03-01T12:06:41;98723.84;;;11.95;29.29
40285;BME280;25997;50.214;19.354;2023-03-01T12:10:21;98716.41;;;12.37;28.72
40285;BME280;25997;50.214;19.354;2023-03-01T12:13:47;98715.38;;;12.93;28.08
40285;BME280;25997;50.214;19.354;2023-03-01T12:17:10;98708.94;;;13.13;29.28
40285;BME280;25997;50.214;19.354;2023-03-01T12:20:25;98703.28;;;13.32;28.21
40285;BME280;25997;50.214;19.354;2023-03-01T12:27:09;98708.44;;;13.61;27.49
40285;BME280;25997;50.214;19.354;2023-03-01T12:30:26;98694.84;;;13.82;26.22
40285;BME280;25997;50.214;19.354;2023-03-01T12:33:41;98688.69;;;13.82;27.14
40285;BME280;25997;50.214;19.354;2023-03-01T12:37:11;98688.19;;;13.96;26.77
40285;BME280;25997;50.214;19.354;2023-03-01T12:40:27;98684.44;;;14.25;27.41
40285;BME280;25997;50.214;19.354;2023-03-01T12:43:43;98675.31;;;14.52;24.00
40285;BME280;25997;50.214;19.354;2023-03-01T12:46:57;98669.59;;;14.30;26.34
40285;BME280;25997;50.214;19.354;2023-03-01T12:50:12;98668.44;;;14.60;25.03
40285;BME280;25997;50.214;19.354;2023-03-01T12:53:22;98664.69;;;14.92;25.94
40285;BME280;25997;50.214;19.354;2023-03-01T12:56:28;98658.25;;;15.26;25.90
40285;BME280;25997;50.214;19.354;2023-03-01T12:59:37;98658.34;;;15.29;25.85
40285;BME280;25997;50.214;19.354;2023-03-01T13:02:47;98658.78;;;15.05;24.69
40285;BME280;25997;50.214;19.354;2023-03-01T13:06:03;98664.28;;;14.72;24.94
40285;BME280;25997;50.214;19.354;2023-03-01T13:09:16;98651.19;;;14.78;24.63
40285;BME280;25997;50.214;19.354;2023-03-01T13:13:00;98652.31;;;15.37;23.68
40285;BME280;25997;50.214;19.354;2023-03-01T13:16:22;98654.28;;;15.50;22.45
40285;BME280;25997;50.214;19.354;2023-03-01T13:19:56;98656.84;;;15.46;24.08
40285;BME280;25997;50.214;19.354;2023-03-01T13:23:23;98656.41;;;15.71;23.82
40285;BME280;25997;50.214;19.354;2023-03-01T13:26:26;98642.09;;;15.60;25.62
40285;BME280;25997;50.214;19.354;2023-03-01T13:29:44;98647.56;;;15.70;24.02
40285;BME280;25997;50.214;19.354;2023-03-01T13:32:46;98649.25;;;15.64;25.42
40285;BME280;25997;50.214;19.354;2023-03-01T13:35:49;98643.03;;;16.22;25.01
40285;BME280;25997;50.214;19.354;2023-03-01T13:38:57;98653.31;;;16.67;23.96
40285;BME280;25997;50.214;19.354;2023-03-01T13:42:00;98647.00;;;16.54;24.40
40285;BME280;25997;50.214;19.354;2023-03-01T13:45:04;98637.91;;;16.37;24.04
40285;BME280;25997;50.214;19.354;2023-03-01T13:48:15;98635.00;;;16.17;22.45
40285;BME280;25997;50.214;19.354;2023-03-01T13:51:23;98633.56;;;15.77;24.14
40285;BME280;25997;50.214;19.354;2023-03-01T13:54:31;98634.53;;;15.84;23.83
40285;BME280;25997;50.214;19.354;2023-03-01T13:57:36;98624.16;;;16.01;24.24
40285;BME280;25997;50.214;19.354;2023-03-01T14:00:40;98623.72;;;16.32;24.34
40285;BME280;25997;50.214;19.354;2023-03-01T14:03:43;98608.19;;;15.93;23.39
40285;BME280;25997;50.214;19.354;2023-03-01T14:06:46;98612.78;;;15.49;23.45
40285;BME280;25997;50.214;19.354;2023-03-01T14:09:52;98616.91;;;15.32;23.22
40285;BME280;25997;50.214;19.354;2023-03-01T14:13:04;98617.25;;;15.01;22.38
40285;BME280;25997;50.214;19.354;2023-03-01T14:16:22;98612.88;;;15.03;23.02
40285;BME280;25997;50.214;19.354;2023-03-01T14:19:30;98611.47;;;15.22;23.43
40285;BME280;25997;50.214;19.354;2023-03-01T14:22:34;98610.63;;;15.24;21.96
40285;BME280;25997;50.214;19.354;2023-03-01T14:25:47;98611.47;;;15.22;22.10
40285;BME280;25997;50.214;19.354;2023-03-01T14:28:50;98604.13;;;15.61;22.28
40285;BME280;25997;50.214;19.354;2023-03-01T14:31:53;98596.56;;;15.28;21.45
40285;BME280;25997;50.214;19.354;2023-03-01T14:34:57;98604.63;;;14.85;21.85
40285;BME280;25997;50.214;19.354;2023-03-01T14:38:00;98595.28;;;15.03;22.08
40285;BME280;25997;50.214;19.354;2023-03-01T14:41:07;98598.06;;;15.13;21.51
40285;BME280;25997;50.214;19.354;2023-03-01T14:44:15;98598.59;;;15.44;21.16
40285;BME280;25997;50.214;19.354;2023-03-01T14:47:25;98599.91;;;15.18;21.57
40285;BME280;25997;50.214;19.354;2023-03-01T14:50:30;98590.66;;;14.93;20.66
40285;BME280;25997;50.214;19.354;2023-03-01T14:53:33;98594.44;;;14.60;21.44
40285;BME280;25997;50.214;19.354;2023-03-01T14:56:45;98593.56;;;14.61;20.67
40285;BME280;25997;50.214;19.354;2023-03-01T14:59:49;98597.56;;;14.39;21.53
40285;BME280;25997;50.214;19.354;2023-03-01T15:02:56;98597.16;;;13.81;21.59
40285;BME280;25997;50.214;19.354;2023-03-01T15:06:00;98594.91;;;13.60;21.87
40285;BME280;25997;50.214;19.354;2023-03-01T15:09:03;98597.44;;;13.18;22.18
40285;BME280;25997;50.214;19.354;2023-03-01T15:12:33;98588.94;;;12.63;21.39
40285;BME280;25997;50.214;19.354;2023-03-01T15:15:38;98597.72;;;12.62;22.28
40285;BME280;25997;50.214;19.354;2023-03-01T15:18:44;98593.28;;;12.30;22.13
40285;BME280;25997;50.214;19.354;2023-03-01T15:21:49;98599.31;;;12.26;22.65
40285;BME280;25997;50.214;19.354;2023-03-01T15:24:52;98591.75;;;12.08;22.13
40285;BME280;25997;50.214;19.354;2023-03-01T15:27:57;98593.56;;;11.81;22.62
40285;BME280;25997;50.214;19.354;2023-03-01T15:31:05;98590.47;;;11.64;22.42
40285;BME280;25997;50.214;19.354;2023-03-01T15:34:22;98591.16;;;11.32;22.15
40285;BME280;25997;50.214;19.354;2023-03-01T15:37:49;98591.75;;;11.22;22.00
40285;BME280;25997;50.214;19.354;2023-03-01T15:40:52;98590.84;;;10.96;22.82
40285;BME280;25997;50.214;19.354;2023-03-01T15:43:57;98581.00;;;10.64;23.03
40285;BME280;25997;50.214;19.354;2023-03-01T15:47:01;98576.66;;;10.41;23.22
40285;BME280;25997;50.214;19.354;2023-03-01T15:50:04;98594.78;;;10.10;23.35
40285;BME280;25997;50.214;19.354;2023-03-01T15:53:11;98580.06;;;9.69;23.51
40285;BME280;25997;50.214;19.354;2023-03-01T15:56:15;98583.69;;;9.26;23.95
40285;BME280;25997;50.214;19.354;2023-03-01T15:59:19;98591.25;;;8.78;24.39
40285;BME280;25997;50.214;19.354;2023-03-01T16:02:23;98588.56;;;8.36;24.78
40285;BME280;25997;50.214;19.354;2023-03-01T16:05:28;98597.69;;;7.87;25.21
40285;BME280;25997;50.214;19.354;2023-03-01T16:08:31;98601.25;;;7.33;25.72
40285;BME280;25997;50.214;19.354;2023-03-01T16:11:35;98606.09;;;6.73;26.17
40285;BME280;25997;50.214;19.354;2023-03-01T16:14:41;98613.91;;;6.23;26.71
40285;BME280;25997;50.214;19.354;2023-03-01T16:17:44;98612.13;;;5.74;27.04
40285;BME280;25997;50.214;19.354;2023-03-01T16:20:56;98610.09;;;5.21;27.36